createdAt,value
2023-06-09T00:00:04.004Z,7.30
2023-06-09T00:04:14.792Z,7.20
2023-06-09T00:08:22.736Z,7.50
2023-06-09T00:12:30.652Z,7.90
2023-06-09T00:16:38.965Z,7.80
2023-06-09T00:20:48.043Z,7.90
2023-06-09T00:24:55.771Z,6.60
2023-06-09T00:29:05.046Z,6.90
2023-06-09T00:33:13.993Z,7.20
2023-06-09T00:37:22.102Z,7.50
2023-06-09T00:41:30.015Z,7.40
2023-06-09T00:45:37.632Z,7.20
2023-06-09T00:49:46.044Z,7.50
2023-06-09T00:53:54.951Z,7.00
2023-06-09T00:58:03.505Z,6.00
2023-06-09T01:02:13.870Z,7.00
2023-06-09T01:06:28.365Z,7.60
2023-06-09T01:10:43.829Z,7.90
2023-06-09T01:14:55.974Z,7.50
2023-06-09T01:19:12.641Z,7.00
2023-06-09T01:23:28.465Z,6.70
2023-06-09T01:27:38.542Z,7.20
2023-06-09T01:31:46.173Z,7.30
2023-06-09T01:35:54.859Z,7.60
2023-06-09T01:40:03.892Z,7.50
2023-06-09T01:44:12.272Z,7.10
2023-06-09T01:48:26.638Z,7.30
2023-06-09T01:52:39.789Z,7.30
2023-06-09T01:56:49.372Z,8.00
2023-06-09T02:00:59.955Z,8.30
2023-06-09T02:05:11.464Z,7.90
2023-06-09T02:09:19.982Z,7.30
2023-06-09T02:13:28.198Z,6.80
2023-06-09T02:17:35.656Z,8.10
2023-06-09T02:21:43.687Z,8.30
2023-06-09T02:25:51.661Z,7.40
2023-06-09T02:30:00.420Z,7.80
2023-06-09T02:34:09.069Z,7.00
2023-06-09T02:38:17.233Z,7.90
2023-06-09T02:42:24.869Z,8.00
2023-06-09T02:46:35.043Z,8.50
2023-06-09T02:50:43.415Z,7.90
2023-06-09T02:54:51.048Z,7.90
2023-06-09T02:58:58.814Z,8.30
2023-06-09T03:03:08.656Z,8.60
2023-06-09T03:07:17.631Z,8.80
2023-06-09T03:11:25.836Z,8.90
2023-06-09T03:15:33.446Z,9.50
2023-06-09T03:19:43.468Z,9.70
2023-06-09T03:23:51.201Z,9.50
2023-06-09T03:27:59.156Z,8.90
2023-06-09T03:32:07.858Z,8.60
2023-06-09T03:36:16.127Z,9.40
2023-06-09T03:40:24.302Z,9.30
2023-06-09T03:44:32.955Z,9.50
2023-06-09T03:48:40.541Z,9.60
2023-06-09T03:52:48.339Z,9.30
2023-06-09T03:56:56.448Z,9.00
2023-06-09T04:01:04.317Z,10.60
2023-06-09T04:05:12.373Z,10.90
2023-06-09T04:09:20.420Z,11.00
2023-06-09T04:13:28.290Z,10.10
2023-06-09T04:21:48.331Z,11.40
2023-06-09T04:25:55.977Z,11.40
2023-06-09T04:30:06.524Z,10.50
2023-06-09T04:34:17.458Z,10.50
2023-06-09T04:38:25.371Z,11.30
2023-06-09T04:42:33.124Z,11.10
2023-06-09T04:46:43.595Z,12.60
2023-06-09T04:50:58.366Z,11.50
2023-06-09T04:55:10.173Z,10.70
2023-06-09T04:59:22.587Z,11.00
2023-06-09T05:03:38.090Z,11.50
2023-06-09T05:07:53.471Z,11.80
2023-06-09T05:12:04.800Z,11.10
2023-06-09T05:16:22.720Z,11.70
2023-06-09T05:20:33.195Z,10.50
2023-06-09T05:24:43.386Z,10.60
2023-06-09T05:28:54.649Z,10.90
2023-06-09T05:33:11.842Z,11.40
2023-06-09T05:37:22.853Z,11.40
2023-06-09T05:41:37.237Z,11.20
2023-06-09T05:45:48.259Z,11.90
2023-06-09T05:49:55.961Z,11.80
2023-06-09T05:54:23.227Z,10.30
2023-06-09T05:58:34.936Z,11.40
2023-06-09T06:02:46.495Z,11.90
2023-06-09T06:06:54.335Z,11.20
2023-06-09T06:11:02.333Z,12.30
2023-06-09T06:15:14.569Z,11.40
2023-06-09T06:19:24.558Z,11.70
2023-06-09T06:23:35.071Z,10.50
2023-06-09T06:27:48.379Z,11.00
2023-06-09T06:31:58.836Z,12.00
2023-06-09T06:36:13.255Z,12.10
2023-06-09T06:40:33.389Z,12.20
2023-06-09T06:44:45.550Z,11.70
2023-06-09T06:48:53.107Z,11.30
2023-06-09T06:53:02.671Z,10.90
2023-06-09T06:57:11.799Z,11.70
2023-06-09T07:01:27.389Z,11.80
2023-06-09T07:05:37.847Z,11.60
2023-06-09T07:09:47.922Z,11.40
2023-06-09T07:14:01.738Z,11.40
2023-06-09T07:18:16.137Z,11.40
2023-06-09T07:22:35.197Z,12.40
2023-06-09T07:26:45.646Z,11.40
2023-06-09T07:31:05.129Z,10.90
2023-06-09T07:35:22.486Z,10.70
2023-06-09T07:39:37.711Z,9.60
2023-06-09T07:43:48.889Z,9.80
2023-06-09T07:48:00.506Z,10.00
2023-06-09T07:52:23.901Z,10.30
2023-06-09T07:56:39.476Z,10.60
2023-06-09T08:00:47.105Z,11.20
2023-06-09T08:04:56.273Z,11.50
2023-06-09T08:09:10.101Z,10.80
2023-06-09T08:13:25.362Z,10.60
2023-06-09T08:17:34.751Z,10.90
2023-06-09T08:21:46.747Z,11.60
2023-06-09T08:25:56.702Z,10.70
2023-06-09T08:30:05.977Z,11.40
2023-06-09T08:34:18.697Z,11.50
2023-06-09T08:38:29.037Z,10.70
2023-06-09T08:42:46.685Z,11.40
2023-06-09T08:46:59.615Z,11.70
2023-06-09T08:51:12.216Z,11.80
2023-06-09T08:55:25.451Z,12.20
2023-06-09T08:59:44.891Z,11.00
2023-06-09T09:04:08.285Z,10.00
2023-06-09T09:08:21.637Z,9.80
2023-06-09T09:12:49.121Z,10.50
2023-06-09T09:16:56.701Z,10.40
2023-06-09T09:21:04.886Z,10.70
2023-06-09T09:25:13.122Z,11.30
2023-06-09T09:29:23.027Z,10.90
2023-06-09T09:33:32.362Z,10.30
2023-06-09T09:37:40.509Z,11.00
2023-06-09T09:42:06.581Z,11.40
2023-06-09T09:46:14.595Z,12.10
2023-06-09T09:50:27.260Z,11.30
2023-06-09T09:54:34.820Z,9.90
2023-06-09T09:58:46.261Z,10.80
2023-06-09T10:02:57.644Z,10.70
2023-06-09T10:07:08.370Z,10.50
2023-06-09T10:11:16.870Z,10.40
2023-06-09T10:15:26.123Z,9.80
2023-06-09T10:19:33.788Z,9.70
2023-06-09T10:23:42.556Z,10.70
2023-06-09T10:27:50.980Z,11.30
2023-06-09T10:32:00.596Z,10.60
2023-06-09T10:36:11.379Z,10.40
2023-06-09T10:40:31.089Z,10.60
2023-06-09T10:44:47.781Z,10.70
2023-06-09T10:49:00.839Z,11.40
2023-06-09T10:53:18.318Z,11.90
2023-06-09T10:57:48.423Z,10.50
2023-06-09T11:02:25.823Z,11.10
2023-06-09T11:06:33.752Z,11.00
2023-06-09T11:10:45.559Z,10.70
2023-06-09T11:14:58.095Z,11.50
2023-06-09T11:19:27.263Z,10.40
2023-06-09T11:23:36.472Z,10.70
2023-06-09T11:27:44.943Z,9.60
2023-06-09T11:31:56.623Z,9.80
2023-06-09T11:36:08.155Z,8.70
2023-06-09T11:40:17.696Z,10.40
2023-06-09T11:44:37.517Z,9.80
2023-06-09T11:49:04.644Z,9.00
2023-06-09T11:53:13.108Z,4.80
2023-06-09T11:57:20.450Z,4.20
2023-06-09T12:01:33.764Z,4.60
2023-06-09T12:05:42.686Z,5.00
2023-06-09T12:09:58.623Z,3.80
2023-06-09T12:14:11.745Z,4.00
2023-06-09T12:18:19.241Z,3.90
2023-06-09T12:22:27.024Z,3.80
2023-06-09T12:26:43.621Z,3.90
2023-06-09T12:30:55.181Z,4.40
2023-06-09T12:35:07.384Z,4.30
2023-06-09T12:39:22.473Z,5.10
2023-06-09T12:43:44.121Z,4.00
2023-06-09T12:47:53.903Z,5.00
2023-06-09T12:52:02.766Z,5.30
2023-06-09T12:56:11.198Z,5.40
2023-06-09T13:00:23.133Z,5.60
2023-06-09T13:04:31.898Z,5.30
2023-06-09T13:08:39.580Z,5.00
2023-06-09T13:12:52.021Z,6.30
2023-06-09T13:16:59.587Z,6.40
2023-06-09T13:21:07.784Z,5.20
2023-06-09T13:25:16.151Z,4.80
2023-06-09T13:29:23.759Z,5.00
2023-06-09T13:33:31.771Z,4.70
2023-06-09T13:37:40.332Z,5.30
2023-06-09T13:41:51.028Z,5.40
2023-06-09T13:45:58.381Z,5.10
2023-06-09T13:50:06.870Z,4.70
2023-06-09T13:54:15.181Z,5.60
2023-06-09T13:58:23.100Z,5.10
2023-06-09T14:02:32.754Z,6.10
2023-06-09T14:06:43.313Z,5.60
2023-06-09T14:10:51.271Z,6.40
2023-06-09T14:15:02.521Z,5.60
2023-06-09T14:19:10.672Z,5.00
2023-06-09T14:23:18.859Z,5.60
2023-06-09T14:27:27.172Z,6.50
2023-06-09T14:31:35.129Z,6.20
2023-06-09T14:35:45.182Z,6.00
2023-06-09T14:39:53.318Z,5.50
2023-06-09T14:44:00.892Z,6.50
2023-06-09T14:48:10.667Z,5.80
2023-06-09T14:52:18.497Z,6.10
2023-06-09T14:56:27.396Z,5.30
2023-06-09T15:00:36.291Z,6.00
2023-06-09T15:04:44.595Z,5.90
2023-06-09T15:08:53.597Z,6.00
2023-06-09T15:13:01.845Z,5.70
2023-06-09T15:17:10.786Z,5.90
2023-06-09T15:21:18.627Z,6.40
2023-06-09T15:25:30.401Z,5.60
2023-06-09T15:29:38.561Z,5.60
2023-06-09T15:33:47.450Z,5.70
2023-06-09T15:37:56.208Z,6.20
2023-06-09T15:42:04.240Z,5.70
2023-06-09T15:46:11.941Z,5.40
2023-06-09T15:50:20.246Z,6.10
2023-06-09T15:54:29.100Z,5.60
2023-06-09T15:58:37.282Z,5.30
2023-06-09T16:02:45.134Z,6.00
2023-06-09T16:06:52.838Z,5.90
2023-06-09T16:11:00.465Z,6.30
2023-06-09T16:15:12.235Z,6.00
2023-06-09T16:19:22.727Z,6.10
2023-06-09T16:23:31.959Z,6.00
2023-06-09T16:27:39.617Z,6.10
2023-06-09T16:31:47.340Z,6.70
2023-06-09T16:35:54.977Z,7.00
2023-06-09T16:40:03.807Z,7.20
2023-06-09T16:44:13.227Z,6.50
2023-06-09T16:48:21.961Z,6.50
2023-06-09T16:52:30.981Z,6.80
2023-06-09T16:56:38.665Z,7.50
2023-06-09T17:00:49.052Z,7.50
2023-06-09T17:04:57.021Z,7.90
2023-06-09T17:09:04.496Z,7.50
2023-06-09T17:13:12.585Z,7.10
2023-06-09T17:17:20.277Z,7.00
2023-06-09T17:21:28.119Z,7.30
2023-06-09T17:25:36.040Z,8.00
2023-06-09T17:29:45.695Z,6.80
2023-06-09T17:33:54.149Z,3.80
2023-06-09T17:38:02.377Z,3.40
2023-06-09T17:42:11.938Z,3.80
2023-06-09T17:46:19.958Z,4.90
2023-06-09T17:50:29.345Z,5.30
2023-06-09T17:54:38.147Z,5.60
2023-06-09T17:58:46.385Z,5.90
2023-06-09T18:02:55.452Z,5.30
2023-06-09T18:07:04.679Z,5.50
2023-06-09T18:11:12.554Z,5.00
2023-06-09T18:15:21.167Z,5.20
2023-06-09T18:19:30.426Z,5.40
2023-06-09T18:23:38.066Z,4.90
2023-06-09T18:27:46.395Z,4.60
2023-06-09T18:31:55.018Z,4.70
2023-06-09T18:36:07.680Z,4.50
2023-06-09T18:40:16.613Z,4.80
2023-06-09T18:44:25.306Z,5.20
2023-06-09T18:48:38.875Z,5.20
2023-06-09T18:52:50.031Z,4.80
2023-06-09T18:56:57.725Z,5.00
2023-06-09T19:01:05.460Z,5.40
2023-06-09T19:05:14.325Z,5.40
2023-06-09T19:09:21.973Z,5.70
2023-06-09T19:13:30.764Z,5.10
2023-06-09T19:17:40.426Z,5.70
2023-06-09T19:21:50.198Z,5.80
2023-06-09T19:25:58.088Z,5.40
2023-06-09T19:30:06.097Z,5.10
2023-06-09T19:34:13.620Z,6.10
2023-06-09T19:38:21.885Z,6.20
2023-06-09T19:42:29.824Z,5.80
2023-06-09T19:46:38.012Z,5.70
2023-06-09T19:50:46.643Z,5.70
2023-06-09T19:54:54.335Z,6.50
2023-06-09T19:59:07.100Z,6.60
2023-06-09T20:03:14.622Z,6.90
2023-06-09T20:07:22.450Z,6.30
2023-06-09T20:11:31.319Z,6.80
2023-06-09T20:15:39.627Z,6.60
2023-06-09T20:19:48.080Z,5.90
2023-06-09T20:23:55.942Z,6.50
2023-06-09T20:28:04.871Z,7.30
2023-06-09T20:32:12.560Z,7.10
2023-06-09T20:36:20.084Z,6.40
2023-06-09T20:40:27.790Z,6.40
2023-06-09T20:44:36.114Z,7.00
2023-06-09T20:48:44.220Z,7.10
2023-06-09T20:52:51.930Z,7.40
2023-06-09T20:56:59.519Z,7.40
2023-06-09T21:01:15.239Z,7.00
2023-06-09T21:05:23.217Z,6.60
2023-06-09T21:09:30.586Z,6.50
2023-06-09T21:13:38.553Z,7.60
2023-06-09T21:17:46.398Z,7.10
2023-06-09T21:21:54.272Z,6.60
2023-06-09T21:26:02.239Z,6.70
2023-06-09T21:30:12.967Z,7.00
2023-06-09T21:34:21.395Z,7.30
2023-06-09T21:38:32.256Z,6.90
2023-06-09T21:42:41.992Z,6.60
2023-06-09T21:46:49.972Z,6.30
2023-06-09T21:50:57.342Z,6.80
2023-06-09T21:55:06.457Z,6.60
2023-06-09T21:59:14.493Z,7.50
2023-06-09T22:03:22.333Z,8.50
2023-06-09T22:07:32.426Z,8.30
2023-06-09T22:11:40.460Z,8.00
2023-06-09T22:15:49.591Z,8.60
2023-06-09T22:19:57.279Z,8.40
2023-06-09T22:24:05.397Z,7.70
2023-06-09T22:28:13.454Z,7.50
2023-06-09T22:32:23.602Z,7.10
2023-06-09T22:36:32.043Z,7.60
2023-06-09T22:40:39.679Z,7.40
2023-06-09T22:44:48.991Z,7.70
2023-06-09T22:49:03.607Z,7.30
2023-06-09T22:53:14.185Z,7.10
2023-06-09T22:57:27.343Z,7.00
2023-06-09T23:01:35.105Z,6.70
2023-06-09T23:05:46.746Z,6.80
2023-06-09T23:09:54.943Z,7.20
2023-06-09T23:14:06.362Z,7.40
2023-06-09T23:18:15.725Z,7.10
2023-06-09T23:22:23.471Z,7.10
2023-06-09T23:26:33.007Z,8.50
2023-06-09T23:30:40.227Z,7.00
2023-06-09T23:34:49.484Z,8.40
2023-06-09T23:38:58.844Z,7.40
2023-06-09T23:43:06.514Z,6.50
2023-06-09T23:47:14.424Z,5.70
2023-06-09T23:51:22.233Z,6.10
2023-06-09T23:55:29.804Z,6.40
2023-06-09T23:59:37.593Z,8.10
